Time;durP1;ratioP1;P1;durP2;ratioP2;P2;SDS_P1;SDS_P2;PMS_P1;PMS_P2;Temp;Humidity;BMP_temperature;BMP_pressure;BME280_temperature;BME280_humidity;BME280_pressure;Samples;Min_cycle;Max_cycle;Signal;HPM_P1;HPM_P2
2022/05/26 00:01:21;;;;;;;0.50;0.50;;;13.90;99.90;;;;;;4995345;28;20474;-77
2022/05/26 00:03:47;;;;;;;1.70;0.77;;;13.80;99.90;;;;;;4996182;28;20050;-77
2022/05/26 00:06:14;;;;;;;1.77;0.60;;;13.90;99.90;;;;;;5011066;28;20050;-77
2022/05/26 00:08:40;;;;;;;1.27;0.47;;;13.90;99.90;;;;;;4996309;28;20051;-77
2022/05/26 00:11:08;;;;;;;0.70;0.70;;;13.90;99.90;;;;;;4994778;28;20152;-77
2022/05/26 00:13:35;;;;;;;1.15;0.70;;;13.90;99.90;;;;;;5011034;28;20092;-77
2022/05/26 00:16:00;;;;;;;0.68;0.60;;;14.00;99.90;;;;;;5010771;28;20052;-78
2022/05/26 00:18:26;;;;;;;1.90;0.80;;;14.00;99.90;;;;;;4996188;28;20038;-76
2022/05/26 00:20:52;;;;;;;2.47;0.70;;;13.90;99.90;;;;;;4995781;28;20371;-76
2022/05/26 00:23:17;;;;;;;2.65;0.77;;;13.90;99.90;;;;;;5010521;28;20129;-77
2022/05/26 00:25:43;;;;;;;2.42;0.52;;;14.00;99.90;;;;;;5011014;28;20129;-77
2022/05/26 00:28:09;;;;;;;2.17;0.60;;;14.00;99.90;;;;;;4995546;28;20498;-77
2022/05/26 00:30:37;;;;;;;2.00;0.70;;;14.00;99.90;;;;;;5010619;28;20042;-78
2022/05/26 00:33:03;;;;;;;3.33;0.70;;;14.00;99.90;;;;;;4995256;28;20054;-77
2022/05/26 00:35:29;;;;;;;1.17;0.63;;;14.00;99.90;;;;;;5011152;28;20076;-77
2022/05/26 00:37:54;;;;;;;1.60;0.60;;;14.00;99.90;;;;;;4994904;28;20391;-77
2022/05/26 00:40:20;;;;;;;3.67;0.73;;;14.00;99.90;;;;;;4995268;28;20402;-77
2022/05/26 00:42:46;;;;;;;1.00;0.63;;;14.00;99.90;;;;;;4995732;28;20053;-77
2022/05/26 00:45:11;;;;;;;0.82;0.60;;;13.90;99.90;;;;;;4993998;28;20057;-77
2022/05/26 00:47:43;;;;;;;1.00;0.85;;;13.90;99.90;;;;;;4995765;28;20046;-77
2022/05/26 00:50:22;;;;;;;1.95;0.80;;;13.90;99.90;;;;;;5010031;28;20097;-77
2022/05/26 00:52:49;;;;;;;2.75;0.70;;;13.90;99.90;;;;;;4995467;28;20046;-77
2022/05/26 00:55:36;;;;;;;0.65;0.55;;;13.90;99.90;;;;;;4994958;28;20468;-77
2022/05/26 00:58:05;;;;;;;2.50;0.80;;;13.90;99.90;;;;;;4993580;28;20065;-78
2022/05/26 01:00:33;;;;;;;2.55;0.60;;;13.90;99.90;;;;;;5010550;28;20462;-78
2022/05/26 01:03:05;;;;;;;0.73;0.65;;;13.90;99.90;;;;;;5010448;28;20049;-81
2022/05/26 01:05:45;;;;;;;1.50;0.82;;;13.90;99.90;;;;;;4995208;28;20104;-77
2022/05/26 01:08:15;;;;;;;1.50;0.70;;;13.90;99.90;;;;;;4995188;28;20096;-77
2022/05/26 01:10:40;;;;;;;1.25;0.70;;;13.90;99.90;;;;;;4978796;28;20454;-75
2022/05/26 01:13:06;;;;;;;0.95;0.70;;;13.90;99.90;;;;;;5008903;28;20046;-72
2022/05/26 01:15:34;;;;;;;0.93;0.70;;;13.90;99.90;;;;;;5031716;28;20042;-74
2022/05/26 01:18:25;;;;;;;3.08;0.80;;;13.90;99.90;;;;;;5030869;28;20030;-73
2022/05/26 01:21:07;;;;;;;2.08;0.75;;;13.90;99.90;;;;;;5011934;28;20431;-76
2022/05/26 01:23:54;;;;;;;0.75;0.68;;;13.90;99.90;;;;;;4994975;28;20058;-78
2022/05/26 01:26:35;;;;;;;2.25;0.77;;;13.90;99.90;;;;;;4994428;28;20403;-77
2022/05/26 01:29:07;;;;;;;1.00;0.80;;;13.80;99.90;;;;;;4994904;28;20073;-77
2022/05/26 01:31:41;;;;;;;3.65;1.00;;;13.80;99.90;;;;;;4994291;28;20129;-78
2022/05/26 01:34:28;;;;;;;1.02;0.80;;;13.80;99.90;;;;;;4993264;28;20082;-77
2022/05/26 01:37:06;;;;;;;1.40;0.80;;;13.80;99.90;;;;;;5008730;28;20096;-77
2022/05/26 01:39:56;;;;;;;2.20;0.90;;;13.80;99.90;;;;;;5009197;28;20042;-78
2022/05/26 01:42:37;;;;;;;0.73;0.70;;;13.80;99.90;;;;;;4990750;28;20549;-77
2022/05/26 01:45:46;;;;;;;2.58;0.70;;;13.70;99.90;;;;;;5011955;28;20062;-77
2022/05/26 01:48:24;;;;;;;2.72;0.75;;;13.70;99.90;;;;;;4974843;28;20046;-78
2022/05/26 01:51:24;;;;;;;1.13;0.63;;;13.70;99.90;;;;;;4959682;28;20142;-76
2022/05/26 01:53:55;;;;;;;1.00;0.70;;;13.70;99.90;;;;;;4955377;28;20158;-75
2022/05/26 01:56:47;;;;;;;1.88;0.88;;;13.70;99.90;;;;;;5010578;28;20050;-76
2022/05/26 01:59:18;;;;;;;3.03;0.70;;;13.70;99.90;;;;;;4995357;28;20057;-75
2022/05/26 02:01:48;;;;;;;0.80;0.75;;;13.70;99.90;;;;;;4994097;28;20092;-75
2022/05/26 02:04:23;;;;;;;2.08;0.60;;;13.70;99.90;;;;;;5009762;28;20046;-77
2022/05/26 02:06:53;;;;;;;1.83;0.68;;;13.70;99.90;;;;;;5010385;28;20046;-76
2022/05/26 02:09:25;;;;;;;4.45;0.82;;;13.70;99.90;;;;;;4993599;28;20047;-77
2022/05/26 02:12:03;;;;;;;1.10;0.60;;;13.70;99.90;;;;;;5009607;28;20510;-76
2022/05/26 02:14:41;;;;;;;0.88;0.60;;;13.70;99.90;;;;;;4993134;28;20062;-77
2022/05/26 02:17:11;;;;;;;0.80;0.57;;;13.70;99.90;;;;;;4992935;28;20140;-77
2022/05/26 02:19:39;;;;;;;0.93;0.50;;;13.60;99.90;;;;;;5008930;28;20086;-76
2022/05/26 02:22:11;;;;;;;0.70;0.50;;;13.70;99.90;;;;;;5008606;28;20102;-75
2022/05/26 02:24:41;;;;;;;2.53;0.70;;;13.60;99.90;;;;;;5009358;28;20062;-76
2022/05/26 02:27:07;;;;;;;;;;;13.70;99.90;;;;;;5009631;28;20053;-77
2022/05/26 02:29:51;;;;;;;1.35;0.70;;;13.70;99.90;;;;;;4993123;28;20384;-77
2022/05/26 02:32:36;;;;;;;0.70;0.60;;;13.70;99.90;;;;;;5006159;28;20160;-78
2022/05/26 02:35:14;;;;;;;3.08;0.55;;;13.70;99.90;;;;;;4992429;28;20061;-78
2022/05/26 02:37:39;;;;;;;2.55;0.73;;;13.70;99.90;;;;;;4992463;28;20133;-76
2022/05/26 02:40:06;;;;;;;1.60;0.55;;;13.70;99.90;;;;;;4992473;28;20570;-76
2022/05/26 02:42:33;;;;;;;1.63;0.68;;;13.70;99.90;;;;;;4992104;28;20054;-77
2022/05/26 02:44:59;;;;;;;2.25;0.40;;;13.70;99.90;;;;;;5008961;28;20457;-77
2022/05/26 02:47:37;;;;;;;1.40;0.40;;;13.60;99.90;;;;;;4993357;28;20078;-77
2022/05/26 02:50:20;;;;;;;2.00;0.50;;;13.60;99.90;;;;;;4976473;28;20399;-77
2022/05/26 02:53:05;;;;;;;0.40;0.40;;;13.60;99.90;;;;;;5008046;28;20046;-77
2022/05/26 02:55:53;;;;;;;0.50;0.50;;;13.60;99.90;;;;;;5007663;28;20082;-77
2022/05/26 02:58:53;;;;;;;0.52;0.40;;;13.60;99.90;;;;;;4993286;28;20164;-77
2022/05/26 03:01:28;;;;;;;0.77;0.40;;;13.60;99.90;;;;;;4993089;28;20053;-77
2022/05/26 03:04:18;;;;;;;0.95;0.60;;;13.60;99.90;;;;;;5007565;28;20078;-76
2022/05/26 03:07:06;;;;;;;2.58;0.50;;;13.50;99.90;;;;;;5022678;28;20102;-74
2022/05/26 03:09:35;;;;;;;0.90;0.50;;;13.50;99.90;;;;;;5015740;28;20129;-76
2022/05/26 03:12:01;;;;;;;1.25;0.43;;;13.50;99.90;;;;;;4992489;28;20406;-77
2022/05/26 03:14:26;;;;;;;1.55;0.40;;;13.50;99.90;;;;;;4993169;28;20129;-77
2022/05/26 03:16:52;;;;;;;0.55;0.30;;;13.40;99.90;;;;;;4993053;28;20038;-77
2022/05/26 03:19:18;;;;;;;0.93;0.43;;;13.40;99.90;;;;;;5007694;28;20392;-78
2022/05/26 03:21:44;;;;;;;1.25;0.50;;;13.40;99.90;;;;;;4992844;28;20049;-77
2022/05/26 03:24:10;;;;;;;0.50;0.40;;;13.40;99.90;;;;;;4993260;28;20402;-77
2022/05/26 03:26:35;;;;;;;1.10;0.47;;;13.30;99.90;;;;;;5007885;28;20557;-78
2022/05/26 03:29:01;;;;;;;0.45;0.30;;;13.30;99.90;;;;;;4993257;28;20042;-78
2022/05/26 03:31:27;;;;;;;0.40;0.40;;;13.20;99.90;;;;;;5007847;28;20505;-77
2022/05/26 03:42:06;;;;;;;0.90;0.30;;;13.10;99.90;;;;;;5005480;28;20621;-77
2022/05/26 03:44:32;;;;;;;0.68;0.32;;;13.00;99.90;;;;;;5007499;28;20057;-77
2022/05/26 03:46:58;;;;;;;0.55;0.20;;;13.00;99.90;;;;;;5007633;28;20042;-77
2022/05/26 03:49:24;;;;;;;0.40;0.40;;;13.00;99.90;;;;;;5007818;28;20081;-77
2022/05/26 03:51:49;;;;;;;0.20;0.20;;;13.00;99.90;;;;;;4992847;28;20502;-76
2022/05/26 03:54:15;;;;;;;0.32;0.20;;;13.00;99.90;;;;;;4992851;28;20130;-77
2022/05/26 03:56:40;;;;;;;2.55;0.40;;;12.90;99.90;;;;;;4995973;28;20042;-77
2022/05/26 03:59:06;;;;;;;0.43;0.32;;;12.80;99.90;;;;;;4996301;28;20054;-77
2022/05/26 04:01:32;;;;;;;0.30;0.30;;;12.90;99.90;;;;;;4995832;28;20078;-77
2022/05/26 04:03:57;;;;;;;0.30;0.30;;;12.80;99.90;;;;;;4996228;28;20085;-76
2022/05/26 04:06:23;;;;;;;0.45;0.30;;;12.90;99.90;;;;;;4995293;28;20050;-78
2022/05/26 04:08:49;;;;;;;0.60;0.40;;;12.90;99.90;;;;;;5011239;28;20046;-77
2022/05/26 04:11:15;;;;;;;1.70;0.30;;;12.90;99.90;;;;;;4995944;28;20049;-77
2022/05/26 04:13:40;;;;;;;0.30;0.20;;;12.90;99.90;;;;;;4995995;28;20046;-77
2022/05/26 04:16:06;;;;;;;0.22;0.20;;;12.90;99.90;;;;;;5011152;28;20140;-77
2022/05/26 04:18:32;;;;;;;0.75;0.25;;;12.90;99.90;;;;;;4994758;28;20054;-82
2022/05/26 04:21:09;;;;;;;0.20;0.20;;;12.90;99.90;;;;;;4995750;28;20050;-79
2022/05/26 04:23:34;;;;;;;0.30;0.20;;;12.90;99.90;;;;;;4994610;28;20138;-79
2022/05/26 04:26:01;;;;;;;0.25;0.20;;;12.90;99.90;;;;;;5011224;28;20092;-77
2022/05/26 04:28:26;;;;;;;0.47;0.20;;;13.00;99.90;;;;;;4995797;28;20058;-78
2022/05/26 04:30:52;;;;;;;0.55;0.20;;;13.00;99.90;;;;;;5011068;28;20050;-77
2022/05/26 04:33:18;;;;;;;0.85;0.20;;;13.00;99.90;;;;;;4995846;28;20043;-78
2022/05/26 04:35:43;;;;;;;0.20;0.20;;;13.10;99.90;;;;;;5010777;28;20042;-78
2022/05/26 04:38:09;;;;;;;0.20;0.20;;;13.10;99.90;;;;;;5012191;28;20111;-79
2022/05/26 04:40:35;;;;;;;0.20;0.17;;;13.10;99.90;;;;;;4995371;28;20403;-79
2022/05/26 04:43:01;;;;;;;0.77;0.30;;;13.10;99.90;;;;;;5016022;28;20106;-78
2022/05/26 04:45:27;;;;;;;0.20;0.20;;;13.10;99.90;;;;;;5007800;28;20047;-78
2022/05/26 04:47:53;;;;;;;0.30;0.20;;;13.20;99.90;;;;;;5005749;28;20053;-79
2022/05/26 04:50:19;;;;;;;0.20;0.20;;;13.20;99.90;;;;;;5024579;28;20030;-80
2022/05/26 04:52:44;;;;;;;0.80;0.30;;;13.20;99.90;;;;;;5019760;28;20038;-80
2022/05/26 04:55:10;;;;;;;0.15;0.15;;;13.10;99.90;;;;;;5019714;28;20056;-80
2022/05/26 04:57:36;;;;;;;0.20;0.20;;;13.20;99.90;;;;;;5033601;28;20125;-80
2022/05/26 05:00:02;;;;;;;0.98;0.20;;;13.20;99.90;;;;;;5025157;28;20471;-79
2022/05/26 05:02:28;;;;;;;0.20;0.20;;;13.20;99.90;;;;;;4994391;28;20046;-79
2022/05/26 05:04:54;;;;;;;0.55;0.15;;;13.20;99.90;;;;;;4993791;28;20073;-79
2022/05/26 05:07:19;;;;;;;0.15;0.15;;;13.20;99.90;;;;;;4994239;28;20550;-79
2022/05/26 05:09:45;;;;;;;0.38;0.10;;;13.20;99.90;;;;;;4994684;28;20395;-79
2022/05/26 05:12:13;;;;;;;0.17;0.17;;;13.30;99.90;;;;;;4993661;28;20050;-81
2022/05/26 05:14:40;;;;;;;2.10;0.28;;;13.40;99.90;;;;;;4993616;28;20062;-80
2022/05/26 05:17:06;;;;;;;0.20;0.20;;;13.50;99.90;;;;;;4977905;28;20050;-79
2022/05/26 05:19:31;;;;;;;0.10;0.10;;;13.60;99.90;;;;;;4994063;28;20054;-80
2022/05/26 05:22:28;;;;;;;0.30;0.20;;;13.60;99.90;;;;;;5009477;28;20050;-80
2022/05/26 05:25:02;;;;;;;0.28;0.20;;;13.70;99.90;;;;;;4992901;28;20073;-77
2022/05/26 05:27:31;;;;;;;0.20;0.20;;;13.70;99.90;;;;;;4995183;28;20054;-78
2022/05/26 05:29:59;;;;;;;0.20;0.20;;;13.80;99.90;;;;;;4994441;28;20046;-77
2022/05/26 05:32:32;;;;;;;0.20;0.20;;;13.80;99.90;;;;;;5009513;28;20526;-77
2022/05/26 05:35:02;;;;;;;0.20;0.20;;;13.90;99.90;;;;;;5008731;28;20046;-77
2022/05/26 05:37:32;;;;;;;0.17;0.17;;;13.90;99.90;;;;;;4994485;28;20054;-78
2022/05/26 05:39:59;;;;;;;0.20;0.20;;;13.90;99.90;;;;;;4993666;28;20057;-85
2022/05/26 05:42:25;;;;;;;0.52;0.10;;;14.00;99.90;;;;;;4994752;28;20038;-82
2022/05/26 05:44:50;;;;;;;0.20;0.20;;;14.00;99.90;;;;;;4992861;28;20052;-79
2022/05/26 05:47:17;;;;;;;0.10;0.10;;;14.00;99.90;;;;;;4994344;28;20490;-78
2022/05/26 05:49:44;;;;;;;0.28;0.20;;;14.00;99.90;;;;;;4994319;28;20082;-78
2022/05/26 05:52:12;;;;;;;0.15;0.15;;;13.90;99.90;;;;;;4993023;28;20085;-77
2022/05/26 05:54:38;;;;;;;0.10;0.10;;;13.90;99.90;;;;;;4994362;28;20104;-77
2022/05/26 05:57:04;;;;;;;0.98;0.20;;;13.80;99.90;;;;;;5009124;28;20442;-77
2022/05/26 05:59:29;;;;;;;0.30;0.20;;;13.80;99.90;;;;;;4993300;28;20042;-77
2022/05/26 06:01:55;;;;;;;0.63;0.20;;;13.70;99.90;;;;;;4993655;28;20051;-78
2022/05/26 06:04:21;;;;;;;0.17;0.17;;;13.60;99.90;;;;;;5009110;28;20141;-78
2022/05/26 06:06:47;;;;;;;0.10;0.10;;;13.60;99.90;;;;;;5008830;28;20410;-81
2022/05/26 06:09:13;;;;;;;0.43;0.20;;;13.60;99.90;;;;;;4992842;28;20108;-81
2022/05/26 06:11:40;;;;;;;0.10;0.10;;;13.60;99.90;;;;;;4993864;28;20088;-80
2022/05/26 06:14:06;;;;;;;0.13;0.13;;;13.60;99.90;;;;;;5008959;28;20062;-79
2022/05/26 06:16:32;;;;;;;0.10;0.10;;;13.60;99.90;;;;;;4992801;28;20050;-80
2022/05/26 06:18:58;;;;;;;0.20;0.20;;;13.60;99.90;;;;;;4993830;28;20038;-79
2022/05/26 06:21:23;;;;;;;0.15;0.10;;;13.70;99.90;;;;;;4992742;28;20043;-79
2022/05/26 06:23:50;;;;;;;0.20;0.20;;;13.70;99.90;;;;;;4992328;28;20055;-79
2022/05/26 06:26:16;;;;;;;0.20;0.20;;;13.80;99.90;;;;;;5012038;28;20050;-79
2022/05/26 06:31:26;;;;;;;0.13;0.13;;;14.00;99.90;;;;;;5011402;28;20062;-79
2022/05/26 06:39:21;;;;;;;0.22;0.10;;;14.00;99.90;;;;;;5018020;28;20119;-78
2022/05/26 06:44:38;;;;;;;0.35;0.20;;;14.30;99.90;;;;;;5017577;28;20093;-75
2022/05/26 06:47:08;;;;;;;1.83;0.20;;;14.50;99.90;;;;;;5003209;28;20100;-78
2022/05/26 06:49:35;;;;;;;0.45;0.20;;;14.70;99.90;;;;;;5008927;28;20054;-78
2022/05/26 06:52:02;;;;;;;0.70;0.10;;;14.80;99.90;;;;;;4992311;28;20464;-78
2022/05/26 06:54:36;;;;;;;0.10;0.10;;;15.00;99.90;;;;;;5008361;28;20133;-77
2022/05/26 06:57:02;;;;;;;1.58;0.30;;;15.10;99.90;;;;;;4993257;28;20085;-78
2022/05/26 06:59:28;;;;;;;0.10;0.10;;;15.20;99.90;;;;;;4993331;28;20089;-77
2022/05/26 07:01:54;;;;;;;0.73;0.20;;;15.20;99.90;;;;;;4993014;28;20454;-79
2022/05/26 07:04:19;;;;;;;0.70;0.20;;;15.30;99.90;;;;;;4992561;28;20392;-79
2022/05/26 07:06:49;;;;;;;0.43;0.10;;;15.30;99.90;;;;;;4993519;28;20053;-77
2022/05/26 07:09:15;;;;;;;0.43;0.20;;;15.40;99.90;;;;;;4992906;28;20082;-78
2022/05/26 07:11:44;;;;;;;0.10;0.10;;;15.40;99.90;;;;;;5008158;28;20050;-76
2022/05/26 07:14:10;;;;;;;0.20;0.20;;;15.50;99.90;;;;;;5007958;28;20314;-80
2022/05/26 07:16:36;;;;;;;0.45;0.20;;;15.50;99.90;;;;;;4993351;28;20054;-77
2022/05/26 07:19:02;;;;;;;0.28;0.20;;;15.60;99.90;;;;;;4991798;28;20062;-81
2022/05/26 07:21:27;;;;;;;0.13;0.13;;;15.70;99.90;;;;;;4993244;28;20042;-81
2022/05/26 07:23:56;;;;;;;0.28;0.10;;;15.80;99.90;;;;;;4991466;28;20065;-80
2022/05/26 07:26:24;;;;;;;0.10;0.10;;;15.80;99.90;;;;;;4993240;28;20112;-81
2022/05/26 07:28:51;;;;;;;0.40;0.20;;;16.00;99.90;;;;;;4993105;28;20057;-80
2022/05/26 07:31:17;;;;;;;0.15;0.15;;;16.10;99.90;;;;;;4996479;28;20121;-76
2022/05/26 07:33:43;;;;;;;0.00;0.00;;;16.20;99.90;;;;;;4997070;28;20182;-77
2022/05/26 07:41:16;;;;;;;0.50;0.10;;;16.30;99.90;;;;;;4996364;28;20402;-77
2022/05/26 07:41:39;;;;;;;0.10;0.10;;;16.50;99.90;;;;;;4995982;28;20042;-81
2022/05/26 07:44:05;;;;;;;0.10;0.10;;;16.60;99.90;;;;;;4996564;28;20061;-77
2022/05/26 07:46:30;;;;;;;0.32;0.10;;;16.70;99.90;;;;;;4996623;28;20442;-77
2022/05/26 07:48:56;;;;;;;0.10;0.10;;;16.70;99.90;;;;;;5011365;28;20406;-78
2022/05/26 07:51:22;;;;;;;0.10;0.10;;;16.70;99.90;;;;;;4996875;28;20046;-77
2022/05/26 07:53:48;;;;;;;0.20;0.10;;;16.80;99.90;;;;;;4996690;28;20054;-77
2022/05/26 07:56:14;;;;;;;0.10;0.10;;;16.80;99.90;;;;;;5011326;28;20128;-78
2022/05/26 07:58:39;;;;;;;0.20;0.20;;;16.80;99.90;;;;;;4996864;28;20058;-82
2022/05/26 08:01:07;;;;;;;0.40;0.20;;;16.90;99.90;;;;;;5011441;28;20090;-78
2022/05/26 08:03:33;;;;;;;0.10;0.10;;;17.00;99.90;;;;;;5011317;28;20046;-77
2022/05/26 08:05:59;;;;;;;0.10;0.10;;;16.90;99.90;;;;;;4996122;28;20046;-79
2022/05/26 08:08:26;;;;;;;0.15;0.10;;;16.90;99.90;;;;;;4995272;28;20056;-78
2022/05/26 08:10:52;;;;;;;0.20;0.10;;;17.00;99.90;;;;;;4996272;28;20114;-78
2022/05/26 08:13:18;;;;;;;0.20;0.20;;;17.00;99.90;;;;;;4995958;28;20093;-79
2022/05/26 08:15:43;;;;;;;0.20;0.10;;;16.90;99.90;;;;;;5011450;28;20047;-78
2022/05/26 08:18:09;;;;;;;0.10;0.10;;;16.90;99.90;;;;;;4996030;28;20052;-78
2022/05/26 08:20:35;;;;;;;1.65;0.20;;;16.90;99.90;;;;;;5007665;28;20073;-78
2022/05/26 08:23:01;;;;;;;0.43;0.15;;;16.80;99.90;;;;;;5010624;28;20066;-81
2022/05/26 08:25:27;;;;;;;0.20;0.20;;;16.80;99.90;;;;;;5008132;28;20132;-79
2022/05/26 08:27:53;;;;;;;0.10;0.10;;;16.80;99.90;;;;;;5013537;28;20050;-78
2022/05/26 08:30:18;;;;;;;0.75;0.20;;;16.70;99.90;;;;;;5035940;28;20034;-78
2022/05/26 08:32:44;;;;;;;0.20;0.20;;;16.70;99.90;;;;;;5014052;28;20493;-78
2022/05/26 08:35:10;;;;;;;0.30;0.20;;;16.60;99.90;;;;;;5007241;28;20501;-77
2022/05/26 08:37:35;;;;;;;0.20;0.20;;;16.60;99.90;;;;;;4996298;28;20075;-79
2022/05/26 08:40:01;;;;;;;0.30;0.20;;;16.60;99.90;;;;;;5011132;28;20462;-79
2022/05/26 08:42:29;;;;;;;0.10;0.10;;;16.80;99.90;;;;;;4995345;28;20475;-78
2022/05/26 08:44:57;;;;;;;0.10;0.10;;;17.00;99.90;;;;;;4995612;28;20451;-77
2022/05/26 08:47:28;;;;;;;0.10;0.10;;;17.20;99.90;;;;;;5010374;28;20038;-77
2022/05/26 08:49:57;;;;;;;0.95;0.10;;;17.30;99.90;;;;;;5010901;28;20557;-77
2022/05/26 08:52:33;;;;;;;0.10;0.10;;;17.40;99.90;;;;;;5010228;28;20403;-76
2022/05/26 08:55:21;;;;;;;0.20;0.10;;;17.40;99.90;;;;;;4995798;28;20050;-76
2022/05/26 08:58:25;;;;;;;0.17;0.17;;;17.40;98.10;;;;;;5010356;28;20125;-76
2022/05/26 09:00:51;;;;;;;0.20;0.10;;;17.50;95.30;;;;;;4957621;28;20531;-76
2022/05/26 09:03:36;;;;;;;0.45;0.10;;;17.60;99.90;;;;;;4990801;28;20060;-76
2022/05/26 09:06:06;;;;;;;0.15;0.10;;;17.80;99.90;;;;;;4994012;28;20150;-79
2022/05/26 09:14:26;;;;;;;0.10;0.10;;;17.80;98.50;;;;;;5009909;28;20054;-82
2022/05/26 09:16:58;;;;;;;0.10;0.10;;;17.70;99.50;;;;;;4994156;28;20449;-80
2022/05/26 09:19:24;;;;;;;0.28;0.10;;;17.60;99.20;;;;;;5010173;28;20057;-83
2022/05/26 09:21:50;;;;;;;0.13;0.10;;;17.40;99.90;;;;;;4993942;28;20062;-82
2022/05/26 09:24:38;;;;;;;0.10;0.10;;;17.40;99.90;;;;;;5010373;28;20169;-80
2022/05/26 09:27:26;;;;;;;0.13;0.13;;;17.30;99.00;;;;;;4994538;28;20054;-81
2022/05/26 09:29:52;;;;;;;0.10;0.10;;;17.40;99.80;;;;;;5010717;28;20054;-80
2022/05/26 09:32:18;;;;;;;0.50;0.20;;;17.40;99.10;;;;;;5009805;28;20049;-82
2022/05/26 09:35:03;;;;;;;0.32;0.20;;;17.60;99.10;;;;;;4993944;28;20097;-80
2022/05/26 09:37:49;;;;;;;0.20;0.20;;;17.60;98.90;;;;;;5010210;28;20496;-85
2022/05/26 09:40:29;;;;;;;0.35;0.10;;;17.60;96.60;;;;;;4993591;28;20401;-83
2022/05/26 09:43:16;;;;;;;0.40;0.10;;;17.60;98.20;;;;;;5010114;28;20517;-83
2022/05/26 09:45:42;;;;;;;0.45;0.20;;;17.70;96.10;;;;;;4993544;28;20064;-81
2022/05/26 09:48:19;;;;;;;0.10;0.10;;;17.80;98.10;;;;;;4994655;28;20046;-81
2022/05/26 09:50:52;;;;;;;0.15;0.10;;;17.90;96.80;;;;;;5009878;28;20054;-84
2022/05/26 09:53:30;;;;;;;0.10;0.10;;;18.10;98.80;;;;;;5008576;28;20097;-80
2022/05/26 09:55:56;;;;;;;0.10;0.10;;;18.30;97.70;;;;;;4993711;28;20054;-80
2022/05/26 09:58:34;;;;;;;0.10;0.10;;;18.50;98.00;;;;;;4994486;28;20562;-81
2022/05/26 10:01:26;;;;;;;0.10;0.10;;;18.70;95.60;;;;;;4993809;28;20050;-80
2022/05/26 10:03:55;;;;;;;0.95;0.20;;;18.80;97.00;;;;;;5007301;28;20046;-79
2022/05/26 10:06:25;;;;;;;0.20;0.20;;;19.00;96.10;;;;;;5009124;28;20053;-81
2022/05/26 10:09:10;;;;;;;0.10;0.10;;;19.10;97.00;;;;;;5009597;28;20081;-80
2022/05/26 10:11:42;;;;;;;0.10;0.10;;;19.20;95.90;;;;;;4993639;28;20054;-79
2022/05/26 10:14:13;;;;;;;1.17;0.20;;;19.20;96.00;;;;;;5002628;28;20034;-82
2022/05/26 10:16:44;;;;;;;0.57;0.40;;;19.30;96.60;;;;;;5016962;28;20077;-82
2022/05/26 10:19:34;;;;;;;0.80;0.10;;;19.30;96.30;;;;;;5016262;28;20046;-80
2022/05/26 10:22:29;;;;;;;0.10;0.10;;;19.20;94.10;;;;;;5014476;28;20049;-81
2022/05/26 10:25:20;;;;;;;0.10;0.10;;;19.20;95.50;;;;;;5034394;28;20080;-81
2022/05/26 10:28:17;;;;;;;0.10;0.10;;;19.10;94.50;;;;;;5034532;28;20034;-80
2022/05/26 10:30:51;;;;;;;0.30;0.17;;;19.10;95.20;;;;;;5016020;28;20072;-80
2022/05/26 10:33:39;;;;;;;0.20;0.13;;;19.10;95.40;;;;;;4990889;28;20077;-80
2022/05/26 10:36:42;;;;;;;0.47;0.20;;;19.20;96.00;;;;;;4995150;28;20050;-80
2022/05/26 10:39:13;;;;;;;0.30;0.22;;;19.30;94.90;;;;;;4994750;28;20100;-81
2022/05/26 10:41:48;;;;;;;0.60;0.20;;;19.50;96.30;;;;;;5009449;28;20043;-80
2022/05/26 10:44:40;;;;;;;2.65;0.30;;;19.60;95.30;;;;;;4992767;28;20496;-80
2022/05/26 10:47:18;;;;;;;1.15;0.20;;;19.60;95.00;;;;;;4993407;28;20054;-80
2022/05/26 10:49:47;;;;;;;0.45;0.20;;;19.50;94.30;;;;;;4992637;28;20072;-79
2022/05/26 10:52:15;;;;;;;0.15;0.13;;;19.30;94.60;;;;;;5008816;28;20495;-80
2022/05/26 10:55:08;;;;;;;0.22;0.20;;;19.20;95.60;;;;;;5008314;28;20534;-79
2022/05/26 10:58:15;;;;;;;0.25;0.20;;;19.20;94.80;;;;;;5008266;28;20063;-80
2022/05/26 11:00:41;;;;;;;0.20;0.20;;;19.20;94.20;;;;;;4992140;28;20050;-80
2022/05/26 11:03:14;;;;;;;0.15;0.15;;;19.20;95.60;;;;;;4993988;28;20057;-79
2022/05/26 11:05:45;;;;;;;0.20;0.20;;;19.20;95.20;;;;;;4995997;28;20116;-79
2022/05/26 11:08:22;;;;;;;0.20;0.20;;;19.40;94.70;;;;;;4996570;28;20054;-82
2022/05/26 11:11:01;;;;;;;0.20;0.20;;;19.60;95.50;;;;;;4996964;28;20049;-79
2022/05/26 11:13:38;;;;;;;0.45;0.20;;;19.80;94.30;;;;;;5012599;28;20129;-80
2022/05/26 11:19:38;;;;;;;0.20;0.20;;;19.90;94.30;;;;;;4989052;28;20561;-80
2022/05/26 11:22:04;;;;;;;0.77;0.20;;;20.00;94.70;;;;;;5012572;28;20069;-81
2022/05/26 11:24:30;;;;;;;0.65;0.30;;;20.00;94.80;;;;;;5012769;28;20050;-81
2022/05/26 11:27:05;;;;;;;0.20;0.20;;;19.90;94.60;;;;;;5013042;28;20141;-80
2022/05/26 11:29:39;;;;;;;0.35;0.20;;;19.90;94.50;;;;;;4996133;28;20050;-81
2022/05/26 11:38:09;;;;;;;0.40;0.30;;;19.80;93.40;;;;;;4997773;28;20113;-80
2022/05/26 11:41:13;;;;;;;0.20;0.20;;;19.80;94.40;;;;;;4997272;28;20047;-80
2022/05/26 11:44:00;;;;;;;0.25;0.20;;;19.80;92.40;;;;;;5012179;28;20050;-80
2022/05/26 11:46:46;;;;;;;0.35;0.20;;;19.70;92.80;;;;;;4997263;28;20061;-80
2022/05/26 11:49:43;;;;;;;0.30;0.20;;;19.60;93.30;;;;;;4997170;28;20049;-81
2022/05/26 11:52:27;;;;;;;0.30;0.20;;;19.60;92.70;;;;;;4996745;28;20049;-80
2022/05/26 11:54:52;;;;;;;0.10;0.10;;;19.60;93.00;;;;;;4995319;28;20054;-80
2022/05/26 11:57:42;;;;;;;0.10;0.10;;;19.60;93.70;;;;;;4996644;28;20042;-81
2022/05/26 12:00:22;;;;;;;0.20;0.20;;;19.50;92.10;;;;;;4996171;28;20042;-80
2022/05/26 12:02:52;;;;;;;1.65;0.13;;;19.40;93.00;;;;;;5012083;28;20383;-80
2022/05/26 12:05:30;;;;;;;0.20;0.20;;;19.40;93.70;;;;;;5011984;28;20133;-81
2022/05/26 12:07:57;;;;;;;0.30;0.20;;;19.40;92.40;;;;;;4996891;28;20137;-80
2022/05/26 12:10:25;;;;;;;0.47;0.30;;;19.30;93.30;;;;;;4995875;28;20046;-80
2022/05/26 12:13:10;;;;;;;0.22;0.20;;;19.20;93.40;;;;;;4995293;28;20049;-80
2022/05/26 12:15:36;;;;;;;0.10;0.10;;;19.10;93.50;;;;;;5025736;28;20046;-82
2022/05/26 12:18:02;;;;;;;0.28;0.20;;;19.10;93.40;;;;;;5019635;28;20038;-81
2022/05/26 12:20:29;;;;;;;0.43;0.20;;;19.10;93.00;;;;;;5016342;28;20046;-80
2022/05/26 12:22:56;;;;;;;0.17;0.17;;;19.10;92.70;;;;;;5030465;28;20058;-81
2022/05/26 12:25:34;;;;;;;0.25;0.17;;;19.10;93.20;;;;;;5020203;28;20038;-81
2022/05/26 12:28:26;;;;;;;0.13;0.13;;;19.00;92.30;;;;;;5004266;28;20044;-80
2022/05/26 12:30:52;;;;;;;1.38;0.20;;;18.80;92.80;;;;;;5019417;28;20050;-80
2022/05/26 12:33:23;;;;;;;1.33;0.20;;;18.80;93.30;;;;;;5012504;28;20077;-80
2022/05/26 12:36:20;;;;;;;0.20;0.20;;;18.90;93.30;;;;;;4996109;28;20597;-80
2022/05/26 12:39:16;;;;;;;0.35;0.20;;;19.00;92.10;;;;;;5011191;28;20054;-80
2022/05/26 12:41:48;;;;;;;1.08;0.20;;;19.00;92.10;;;;;;4996141;28;20406;-80
2022/05/26 12:44:29;;;;;;;1.55;0.30;;;18.80;92.80;;;;;;4996237;28;20050;-80
2022/05/26 12:47:13;;;;;;;0.20;0.20;;;18.70;92.00;;;;;;4995258;28;20082;-79
2022/05/26 12:49:54;;;;;;;0.20;0.20;;;18.70;92.80;;;;;;4994715;28;20050;-80
2022/05/26 12:52:39;;;;;;;0.47;0.20;;;18.80;92.10;;;;;;4994734;28;20130;-79
2022/05/26 12:55:37;;;;;;;0.30;0.20;;;18.90;92.20;;;;;;4995945;28;20443;-80
2022/05/26 12:58:09;;;;;;;0.20;0.20;;;18.90;92.30;;;;;;4983745;28;20546;-79
2022/05/26 13:01:04;;;;;;;0.25;0.25;;;18.90;91.50;;;;;;4978783;28;20050;-79
2022/05/26 13:03:39;;;;;;;0.63;0.30;;;18.70;92.20;;;;;;4990623;28;20058;-79
2022/05/26 13:06:20;;;;;;;0.40;0.28;;;18.70;92.30;;;;;;4994512;28;20046;-79
2022/05/26 13:08:51;;;;;;;0.20;0.20;;;18.70;92.50;;;;;;4995469;28;20464;-79
2022/05/26 13:11:19;;;;;;;0.28;0.20;;;18.60;92.40;;;;;;4994560;28;20129;-79
2022/05/26 13:13:55;;;;;;;0.20;0.20;;;18.50;92.50;;;;;;4995201;28;20107;-79
2022/05/26 13:16:36;;;;;;;0.30;0.30;;;18.40;92.30;;;;;;4994531;28;20130;-80
2022/05/26 13:19:16;;;;;;;0.32;0.20;;;18.40;92.20;;;;;;4994270;28;20050;-80
2022/05/26 13:21:45;;;;;;;0.82;0.20;;;18.40;91.50;;;;;;5010548;28;20049;-82
2022/05/26 13:24:19;;;;;;;0.40;0.30;;;18.50;92.70;;;;;;5010102;28;20046;-82
2022/05/26 13:26:45;;;;;;;0.30;0.30;;;18.60;92.50;;;;;;5009795;28;20509;-80
2022/05/26 13:29:11;;;;;;;0.77;0.30;;;18.60;92.10;;;;;;5013225;28;20053;-81
2022/05/26 13:34:26;;;;;;;0.30;0.30;;;18.50;92.20;;;;;;5013891;28;20108;-79
2022/05/26 13:36:52;;;;;;;0.20;0.20;;;18.50;92.50;;;;;;4997509;28;20504;-79
2022/05/26 13:39:23;;;;;;;0.20;0.20;;;18.50;92.50;;;;;;5015246;28;20053;-79
2022/05/26 13:41:51;;;;;;;0.35;0.20;;;18.40;92.40;;;;;;5014590;28;20045;-80
2022/05/26 13:44:35;;;;;;;0.57;0.30;;;18.40;92.30;;;;;;4998457;28;20056;-80
2022/05/26 13:47:02;;;;;;;1.75;0.20;;;18.30;91.70;;;;;;5014040;28;20050;-81
2022/05/26 13:49:43;;;;;;;1.02;0.20;;;18.20;92.10;;;;;;4997890;28;20387;-79
2022/05/26 13:52:18;;;;;;;0.32;0.20;;;18.10;92.10;;;;;;4997960;28;20054;-79
2022/05/26 13:54:48;;;;;;;0.10;0.10;;;18.10;92.40;;;;;;5014197;28;20085;-78